sensor_id;sensor_type;location;lat;lon;timestamp;P1;durP1;ratioP1;P2;durP2;ratioP2
24259;SDS011;12384;48.112;18.418;2023-02-07T00:01:33;13.77;;;11.87;;
24259;SDS011;12384;48.112;18.418;2023-02-07T00:04:02;17.23;;;13.73;;
24259;SDS011;12384;48.112;18.418;2023-02-07T00:06:33;15.87;;;13.70;;
24259;SDS011;12384;48.112;18.418;2023-02-07T00:09:03;16.27;;;13.73;;
24259;SDS011;12384;48.112;18.418;2023-02-07T00:11:34;16.77;;;13.03;;
24259;SDS011;12384;48.112;18.418;2023-02-07T00:14:06;23.03;;;15.33;;
24259;SDS011;12384;48.112;18.418;2023-02-07T00:16:35;16.73;;;14.30;;
24259;SDS011;12384;48.112;18.418;2023-02-07T00:19:04;13.23;;;11.93;;
24259;SDS011;12384;48.112;18.418;2023-02-07T00:21:34;13.80;;;12.27;;
24259;SDS011;12384;48.112;18.418;2023-02-07T00:24:02;13.47;;;11.47;;
24259;SDS011;12384;48.112;18.418;2023-02-07T00:26:31;15.53;;;12.67;;
24259;SDS011;12384;48.112;18.418;2023-02-07T00:29:00;20.87;;;15.43;;
24259;SDS011;12384;48.112;18.418;2023-02-07T00:31:29;15.23;;;13.13;;
24259;SDS011;12384;48.112;18.418;2023-02-07T00:34:02;17.47;;;13.80;;
24259;SDS011;12384;48.112;18.418;2023-02-07T00:36:32;15.63;;;13.60;;
24259;SDS011;12384;48.112;18.418;2023-02-07T00:39:04;17.00;;;14.83;;
24259;SDS011;12384;48.112;18.418;2023-02-07T00:41:33;20.23;;;16.57;;
24259;SDS011;12384;48.112;18.418;2023-02-07T00:44:02;24.07;;;17.87;;
24259;SDS011;12384;48.112;18.418;2023-02-07T00:46:30;21.77;;;17.40;;
24259;SDS011;12384;48.112;18.418;2023-02-07T00:48:59;22.83;;;18.90;;
24259;SDS011;12384;48.112;18.418;2023-02-07T00:51:28;19.80;;;17.27;;
24259;SDS011;12384;48.112;18.418;2023-02-07T00:53:58;24.80;;;17.43;;
24259;SDS011;12384;48.112;18.418;2023-02-07T00:56:27;19.40;;;17.33;;
24259;SDS011;12384;48.112;18.418;2023-02-07T00:58:57;19.07;;;15.97;;
24259;SDS011;12384;48.112;18.418;2023-02-07T01:01:25;17.10;;;14.67;;
24259;SDS011;12384;48.112;18.418;2023-02-07T01:03:55;16.83;;;14.57;;
24259;SDS011;12384;48.112;18.418;2023-02-07T01:06:23;17.67;;;14.27;;
24259;SDS011;12384;48.112;18.418;2023-02-07T01:08:55;19.07;;;13.60;;
24259;SDS011;12384;48.112;18.418;2023-02-07T01:11:27;21.23;;;15.20;;
24259;SDS011;12384;48.112;18.418;2023-02-07T01:13:57;17.57;;;14.53;;
24259;SDS011;12384;48.112;18.418;2023-02-07T01:16:27;18.03;;;14.37;;
24259;SDS011;12384;48.112;18.418;2023-02-07T01:18:59;23.27;;;18.73;;
24259;SDS011;12384;48.112;18.418;2023-02-07T01:21:28;24.83;;;19.67;;
24259;SDS011;12384;48.112;18.418;2023-02-07T01:23:57;26.40;;;20.60;;
24259;SDS011;12384;48.112;18.418;2023-02-07T01:26:27;22.37;;;17.63;;
24259;SDS011;12384;48.112;18.418;2023-02-07T01:28:56;19.40;;;16.63;;
24259;SDS011;12384;48.112;18.418;2023-02-07T01:31:24;21.83;;;17.27;;
24259;SDS011;12384;48.112;18.418;2023-02-07T01:33:53;18.63;;;15.00;;
24259;SDS011;12384;48.112;18.418;2023-02-07T01:36:23;18.77;;;15.13;;
24259;SDS011;12384;48.112;18.418;2023-02-07T01:38:53;18.53;;;15.03;;
24259;SDS011;12384;48.112;18.418;2023-02-07T01:41:23;18.13;;;14.53;;
24259;SDS011;12384;48.112;18.418;2023-02-07T01:43:59;19.57;;;15.10;;
24259;SDS011;12384;48.112;18.418;2023-02-07T01:46:29;21.53;;;15.13;;
24259;SDS011;12384;48.112;18.418;2023-02-07T01:49:00;18.07;;;14.20;;
24259;SDS011;12384;48.112;18.418;2023-02-07T01:51:31;18.50;;;14.60;;
24259;SDS011;12384;48.112;18.418;2023-02-07T01:54:02;19.17;;;14.77;;
24259;SDS011;12384;48.112;18.418;2023-02-07T01:56:33;18.20;;;14.87;;
24259;SDS011;12384;48.112;18.418;2023-02-07T01:59:06;16.97;;;13.33;;
24259;SDS011;12384;48.112;18.418;2023-02-07T02:01:34;19.90;;;15.20;;
24259;SDS011;12384;48.112;18.418;2023-02-07T02:04:03;26.93;;;18.53;;
24259;SDS011;12384;48.112;18.418;2023-02-07T02:06:33;23.30;;;16.33;;
24259;SDS011;12384;48.112;18.418;2023-02-07T02:09:06;19.97;;;15.03;;
24259;SDS011;12384;48.112;18.418;2023-02-07T02:11:44;18.67;;;15.17;;
24259;SDS011;12384;48.112;18.418;2023-02-07T02:14:25;16.13;;;14.43;;
24259;SDS011;12384;48.112;18.418;2023-02-07T02:17:03;18.63;;;14.97;;
24259;SDS011;12384;48.112;18.418;2023-02-07T02:19:49;20.83;;;15.83;;
24259;SDS011;12384;48.112;18.418;2023-02-07T02:22:56;16.70;;;14.57;;
24259;SDS011;12384;48.112;18.418;2023-02-07T02:29:05;18.27;;;13.57;;
24259;SDS011;12384;48.112;18.418;2023-02-07T02:35:04;23.10;;;17.33;;
24259;SDS011;12384;48.112;18.418;2023-02-07T02:37:41;22.90;;;16.13;;
24259;SDS011;12384;48.112;18.418;2023-02-07T02:40:17;19.57;;;14.70;;
24259;SDS011;12384;48.112;18.418;2023-02-07T02:42:49;20.33;;;15.90;;
24259;SDS011;12384;48.112;18.418;2023-02-07T02:45:24;20.00;;;15.23;;
24259;SDS011;12384;48.112;18.418;2023-02-07T02:47:55;16.13;;;13.97;;
24259;SDS011;12384;48.112;18.418;2023-02-07T02:50:26;20.67;;;13.67;;
24259;SDS011;12384;48.112;18.418;2023-02-07T02:52:56;15.57;;;13.80;;
24259;SDS011;12384;48.112;18.418;2023-02-07T02:55:32;18.67;;;14.40;;
24259;SDS011;12384;48.112;18.418;2023-02-07T02:58:22;23.90;;;16.33;;
24259;SDS011;12384;48.112;18.418;2023-02-07T03:01:05;18.43;;;14.27;;
24259;SDS011;12384;48.112;18.418;2023-02-07T03:03:47;21.13;;;15.20;;
24259;SDS011;12384;48.112;18.418;2023-02-07T03:06:35;24.93;;;16.43;;
24259;SDS011;12384;48.112;18.418;2023-02-07T03:09:15;28.60;;;19.20;;
24259;SDS011;12384;48.112;18.418;2023-02-07T03:11:56;18.93;;;16.13;;
24259;SDS011;12384;48.112;18.418;2023-02-07T03:14:39;20.70;;;15.40;;
24259;SDS011;12384;48.112;18.418;2023-02-07T03:17:16;19.03;;;14.50;;
24259;SDS011;12384;48.112;18.418;2023-02-07T03:19:52;31.73;;;21.93;;
24259;SDS011;12384;48.112;18.418;2023-02-07T03:22:26;26.23;;;19.80;;
24259;SDS011;12384;48.112;18.418;2023-02-07T03:24:56;22.43;;;16.43;;
24259;SDS011;12384;48.112;18.418;2023-02-07T03:27:29;23.97;;;16.73;;
24259;SDS011;12384;48.112;18.418;2023-02-07T03:30:01;32.70;;;21.97;;
24259;SDS011;12384;48.112;18.418;2023-02-07T03:32:34;36.30;;;21.73;;
24259;SDS011;12384;48.112;18.418;2023-02-07T03:35:05;35.80;;;22.23;;
24259;SDS011;12384;48.112;18.418;2023-02-07T03:37:44;31.90;;;22.43;;
24259;SDS011;12384;48.112;18.418;2023-02-07T03:40:16;34.20;;;21.83;;
24259;SDS011;12384;48.112;18.418;2023-02-07T03:42:46;31.73;;;20.80;;
24259;SDS011;12384;48.112;18.418;2023-02-07T03:45:18;27.73;;;19.20;;
24259;SDS011;12384;48.112;18.418;2023-02-07T03:47:48;24.20;;;18.97;;
24259;SDS011;12384;48.112;18.418;2023-02-07T03:50:17;31.70;;;20.70;;
24259;SDS011;12384;48.112;18.418;2023-02-07T03:52:46;23.63;;;16.93;;
24259;SDS011;12384;48.112;18.418;2023-02-07T03:55:15;19.87;;;16.57;;
24259;SDS011;12384;48.112;18.418;2023-02-07T03:57:43;22.07;;;16.97;;
24259;SDS011;12384;48.112;18.418;2023-02-07T04:00:12;23.50;;;16.40;;
24259;SDS011;12384;48.112;18.418;2023-02-07T04:02:43;27.20;;;19.23;;
24259;SDS011;12384;48.112;18.418;2023-02-07T04:05:12;28.07;;;19.47;;
24259;SDS011;12384;48.112;18.418;2023-02-07T04:07:40;23.23;;;17.20;;
24259;SDS011;12384;48.112;18.418;2023-02-07T04:10:10;22.03;;;17.47;;
24259;SDS011;12384;48.112;18.418;2023-02-07T04:12:38;27.33;;;18.97;;
24259;SDS011;12384;48.112;18.418;2023-02-07T04:15:07;28.33;;;19.50;;
24259;SDS011;12384;48.112;18.418;2023-02-07T04:17:36;23.93;;;17.40;;
24259;SDS011;12384;48.112;18.418;2023-02-07T04:20:05;26.27;;;17.67;;
24259;SDS011;12384;48.112;18.418;2023-02-07T04:22:34;27.47;;;18.37;;
24259;SDS011;12384;48.112;18.418;2023-02-07T04:25:03;17.50;;;15.53;;
24259;SDS011;12384;48.112;18.418;2023-02-07T04:27:33;21.30;;;16.10;;
24259;SDS011;12384;48.112;18.418;2023-02-07T04:30:02;18.47;;;14.40;;
24259;SDS011;12384;48.112;18.418;2023-02-07T04:32:30;16.47;;;14.20;;
24259;SDS011;12384;48.112;18.418;2023-02-07T04:34:59;18.67;;;13.63;;
24259;SDS011;12384;48.112;18.418;2023-02-07T04:37:27;17.03;;;13.23;;
24259;SDS011;12384;48.112;18.418;2023-02-07T04:39:55;20.23;;;15.20;;
24259;SDS011;12384;48.112;18.418;2023-02-07T04:42:24;16.60;;;13.93;;
24259;SDS011;12384;48.112;18.418;2023-02-07T04:44:54;15.23;;;12.80;;
24259;SDS011;12384;48.112;18.418;2023-02-07T04:47:22;20.30;;;14.27;;
24259;SDS011;12384;48.112;18.418;2023-02-07T04:49:51;19.77;;;15.03;;
24259;SDS011;12384;48.112;18.418;2023-02-07T04:52:19;19.67;;;14.30;;
24259;SDS011;12384;48.112;18.418;2023-02-07T04:54:48;19.87;;;14.47;;
24259;SDS011;12384;48.112;18.418;2023-02-07T04:57:16;22.67;;;15.67;;
24259;SDS011;12384;48.112;18.418;2023-02-07T04:59:44;20.53;;;14.23;;
24259;SDS011;12384;48.112;18.418;2023-02-07T05:02:14;18.60;;;13.90;;
24259;SDS011;12384;48.112;18.418;2023-02-07T05:04:43;15.50;;;13.40;;
24259;SDS011;12384;48.112;18.418;2023-02-07T05:07:11;14.67;;;12.30;;
24259;SDS011;12384;48.112;18.418;2023-02-07T05:09:40;17.27;;;13.60;;
24259;SDS011;12384;48.112;18.418;2023-02-07T05:12:08;19.67;;;14.43;;
24259;SDS011;12384;48.112;18.418;2023-02-07T05:14:36;17.03;;;13.67;;
24259;SDS011;12384;48.112;18.418;2023-02-07T05:17:05;14.20;;;12.70;;
24259;SDS011;12384;48.112;18.418;2023-02-07T05:19:34;14.47;;;12.90;;
24259;SDS011;12384;48.112;18.418;2023-02-07T05:22:03;22.37;;;16.30;;
24259;SDS011;12384;48.112;18.418;2023-02-07T05:24:31;17.63;;;13.33;;
24259;SDS011;12384;48.112;18.418;2023-02-07T05:27:00;18.60;;;15.10;;
24259;SDS011;12384;48.112;18.418;2023-02-07T05:29:28;17.57;;;14.03;;
24259;SDS011;12384;48.112;18.418;2023-02-07T05:31:56;24.83;;;18.17;;
24259;SDS011;12384;48.112;18.418;2023-02-07T05:34:43;26.47;;;18.20;;
24259;SDS011;12384;48.112;18.418;2023-02-07T05:37:12;26.57;;;18.97;;
24259;SDS011;12384;48.112;18.418;2023-02-07T05:39:40;29.37;;;20.13;;
24259;SDS011;12384;48.112;18.418;2023-02-07T05:42:09;20.83;;;15.87;;
24259;SDS011;12384;48.112;18.418;2023-02-07T05:44:37;20.43;;;16.00;;
24259;SDS011;12384;48.112;18.418;2023-02-07T05:47:06;25.53;;;17.50;;
24259;SDS011;12384;48.112;18.418;2023-02-07T05:49:35;30.53;;;20.37;;
24259;SDS011;12384;48.112;18.418;2023-02-07T05:52:06;30.80;;;21.37;;
24259;SDS011;12384;48.112;18.418;2023-02-07T05:54:34;29.63;;;19.60;;
24259;SDS011;12384;48.112;18.418;2023-02-07T05:57:03;25.97;;;18.37;;
24259;SDS011;12384;48.112;18.418;2023-02-07T05:59:31;38.00;;;22.33;;
24259;SDS011;12384;48.112;18.418;2023-02-07T06:02:00;38.90;;;24.87;;
24259;SDS011;12384;48.112;18.418;2023-02-07T06:04:28;55.37;;;31.63;;
24259;SDS011;12384;48.112;18.418;2023-02-07T06:06:56;50.37;;;27.53;;
24259;SDS011;12384;48.112;18.418;2023-02-07T06:09:26;38.53;;;24.93;;
24259;SDS011;12384;48.112;18.418;2023-02-07T06:11:55;40.27;;;25.00;;
24259;SDS011;12384;48.112;18.418;2023-02-07T06:14:23;36.63;;;23.87;;
24259;SDS011;12384;48.112;18.418;2023-02-07T06:16:51;34.43;;;22.73;;
24259;SDS011;12384;48.112;18.418;2023-02-07T06:19:20;27.97;;;20.37;;
24259;SDS011;12384;48.112;18.418;2023-02-07T06:21:48;29.00;;;20.47;;
24259;SDS011;12384;48.112;18.418;2023-02-07T06:24:17;26.70;;;19.83;;
24259;SDS011;12384;48.112;18.418;2023-02-07T06:26:47;27.83;;;19.50;;
24259;SDS011;12384;48.112;18.418;2023-02-07T06:29:15;32.70;;;19.73;;
24259;SDS011;12384;48.112;18.418;2023-02-07T06:31:44;24.83;;;19.47;;
24259;SDS011;12384;48.112;18.418;2023-02-07T06:34:12;28.63;;;20.00;;
24259;SDS011;12384;48.112;18.418;2023-02-07T06:36:41;21.20;;;15.70;;
24259;SDS011;12384;48.112;18.418;2023-02-07T06:39:09;19.87;;;15.43;;
24259;SDS011;12384;48.112;18.418;2023-02-07T06:41:37;20.57;;;16.20;;
24259;SDS011;12384;48.112;18.418;2023-02-07T06:44:07;22.07;;;17.53;;
24259;SDS011;12384;48.112;18.418;2023-02-07T06:46:36;21.50;;;17.13;;
24259;SDS011;12384;48.112;18.418;2023-02-07T06:49:04;30.97;;;21.77;;
24259;SDS011;12384;48.112;18.418;2023-02-07T06:51:33;25.07;;;18.70;;
24259;SDS011;12384;48.112;18.418;2023-02-07T06:54:01;21.60;;;17.47;;
24259;SDS011;12384;48.112;18.418;2023-02-07T06:56:33;20.53;;;17.63;;
24259;SDS011;12384;48.112;18.418;2023-02-07T06:59:02;23.60;;;18.33;;
24259;SDS011;12384;48.112;18.418;2023-02-07T07:01:32;21.20;;;17.60;;
24259;SDS011;12384;48.112;18.418;2023-02-07T07:04:00;25.77;;;21.43;;
24259;SDS011;12384;48.112;18.418;2023-02-07T07:06:28;21.97;;;18.60;;
24259;SDS011;12384;48.112;18.418;2023-02-07T07:08:57;23.27;;;19.67;;
24259;SDS011;12384;48.112;18.418;2023-02-07T07:11:26;20.03;;;17.53;;
24259;SDS011;12384;48.112;18.418;2023-02-07T07:13:54;21.00;;;18.60;;
24259;SDS011;12384;48.112;18.418;2023-02-07T07:16:23;19.73;;;17.60;;
24259;SDS011;12384;48.112;18.418;2023-02-07T07:18:52;20.60;;;17.80;;
24259;SDS011;12384;48.112;18.418;2023-02-07T07:21:21;23.40;;;19.07;;
24259;SDS011;12384;48.112;18.418;2023-02-07T07:23:49;24.60;;;20.60;;
24259;SDS011;12384;48.112;18.418;2023-02-07T07:26:18;22.13;;;19.73;;
24259;SDS011;12384;48.112;18.418;2023-02-07T07:28:46;21.30;;;19.00;;
24259;SDS011;12384;48.112;18.418;2023-02-07T07:31:15;21.30;;;18.67;;
24259;SDS011;12384;48.112;18.418;2023-02-07T07:33:43;20.67;;;17.70;;
24259;SDS011;12384;48.112;18.418;2023-02-07T07:36:13;21.23;;;18.87;;
24259;SDS011;12384;48.112;18.418;2023-02-07T07:38:41;23.67;;;21.27;;
24259;SDS011;12384;48.112;18.418;2023-02-07T07:41:13;23.50;;;20.33;;
24259;SDS011;12384;48.112;18.418;2023-02-07T07:43:41;25.13;;;22.00;;
24259;SDS011;12384;48.112;18.418;2023-02-07T07:46:10;25.23;;;21.67;;
24259;SDS011;12384;48.112;18.418;2023-02-07T07:48:38;26.87;;;22.33;;
24259;SDS011;12384;48.112;18.418;2023-02-07T07:51:06;27.63;;;23.67;;
24259;SDS011;12384;48.112;18.418;2023-02-07T07:53:36;26.90;;;24.03;;
24259;SDS011;12384;48.112;18.418;2023-02-07T07:56:05;26.40;;;23.60;;
24259;SDS011;12384;48.112;18.418;2023-02-07T07:58:33;25.00;;;22.40;;
24259;SDS011;12384;48.112;18.418;2023-02-07T08:01:01;24.30;;;21.87;;
24259;SDS011;12384;48.112;18.418;2023-02-07T08:03:30;24.93;;;22.50;;
24259;SDS011;12384;48.112;18.418;2023-02-07T08:05:58;25.13;;;22.63;;
24259;SDS011;12384;48.112;18.418;2023-02-07T08:08:27;24.03;;;21.67;;
24259;SDS011;12384;48.112;18.418;2023-02-07T08:11:01;23.33;;;20.97;;
24259;SDS011;12384;48.112;18.418;2023-02-07T08:13:32;23.07;;;20.87;;
24259;SDS011;12384;48.112;18.418;2023-02-07T08:16:00;24.00;;;21.70;;
24259;SDS011;12384;48.112;18.418;2023-02-07T08:18:29;23.43;;;21.13;;
24259;SDS011;12384;48.112;18.418;2023-02-07T08:20:57;25.00;;;22.47;;
24259;SDS011;12384;48.112;18.418;2023-02-07T08:23:26;24.83;;;22.40;;
24259;SDS011;12384;48.112;18.418;2023-02-07T08:25:55;24.00;;;21.80;;
24259;SDS011;12384;48.112;18.418;2023-02-07T08:28:25;24.53;;;22.13;;
24259;SDS011;12384;48.112;18.418;2023-02-07T08:30:55;24.17;;;21.87;;
24259;SDS011;12384;48.112;18.418;2023-02-07T08:33:26;25.57;;;22.93;;
24259;SDS011;12384;48.112;18.418;2023-02-07T08:35:56;26.10;;;23.50;;
24259;SDS011;12384;48.112;18.418;2023-02-07T08:38:26;24.83;;;22.47;;
24259;SDS011;12384;48.112;18.418;2023-02-07T08:40:54;24.47;;;21.90;;
24259;SDS011;12384;48.112;18.418;2023-02-07T08:43:23;25.77;;;23.17;;
24259;SDS011;12384;48.112;18.418;2023-02-07T08:45:52;26.50;;;23.83;;
24259;SDS011;12384;48.112;18.418;2023-02-07T08:48:21;25.30;;;22.83;;
24259;SDS011;12384;48.112;18.418;2023-02-07T08:50:49;26.97;;;24.37;;
24259;SDS011;12384;48.112;18.418;2023-02-07T08:53:18;25.90;;;23.30;;
24259;SDS011;12384;48.112;18.418;2023-02-07T08:55:46;22.83;;;20.63;;
24259;SDS011;12384;48.112;18.418;2023-02-07T08:58:15;25.07;;;22.53;;
24259;SDS011;12384;48.112;18.418;2023-02-07T09:00:44;24.97;;;22.57;;
24259;SDS011;12384;48.112;18.418;2023-02-07T09:03:13;25.57;;;23.07;;
24259;SDS011;12384;48.112;18.418;2023-02-07T09:05:41;25.97;;;23.67;;
24259;SDS011;12384;48.112;18.418;2023-02-07T09:08:10;25.50;;;23.10;;
24259;SDS011;12384;48.112;18.418;2023-02-07T09:10:38;24.80;;;22.60;;
24259;SDS011;12384;48.112;18.418;2023-02-07T09:13:07;25.17;;;22.90;;
24259;SDS011;12384;48.112;18.418;2023-02-07T09:15:36;23.80;;;21.77;;
24259;SDS011;12384;48.112;18.418;2023-02-07T09:18:06;23.67;;;21.57;;
24259;SDS011;12384;48.112;18.418;2023-02-07T09:20:34;24.77;;;22.47;;
24259;SDS011;12384;48.112;18.418;2023-02-07T09:23:04;26.67;;;24.23;;
24259;SDS011;12384;48.112;18.418;2023-02-07T09:25:45;24.77;;;22.47;;
24259;SDS011;12384;48.112;18.418;2023-02-07T09:28:15;24.83;;;22.63;;
24259;SDS011;12384;48.112;18.418;2023-02-07T09:30:44;25.13;;;22.83;;
24259;SDS011;12384;48.112;18.418;2023-02-07T09:33:15;22.73;;;20.70;;
24259;SDS011;12384;48.112;18.418;2023-02-07T09:35:44;22.80;;;20.70;;
24259;SDS011;12384;48.112;18.418;2023-02-07T09:38:14;22.93;;;20.90;;
24259;SDS011;12384;48.112;18.418;2023-02-07T09:40:44;24.53;;;22.43;;
24259;SDS011;12384;48.112;18.418;2023-02-07T09:43:17;25.90;;;23.60;;
24259;SDS011;12384;48.112;18.418;2023-02-07T09:46:04;23.20;;;21.00;;
24259;SDS011;12384;48.112;18.418;2023-02-07T09:48:41;22.93;;;20.83;;
24259;SDS011;12384;48.112;18.418;2023-02-07T09:51:13;24.33;;;22.13;;
24259;SDS011;12384;48.112;18.418;2023-02-07T09:53:48;23.37;;;21.17;;
24259;SDS011;12384;48.112;18.418;2023-02-07T09:56:20;24.53;;;22.27;;
24259;SDS011;12384;48.112;18.418;2023-02-07T09:58:52;23.50;;;21.33;;
24259;SDS011;12384;48.112;18.418;2023-02-07T10:01:26;24.57;;;22.27;;
24259;SDS011;12384;48.112;18.418;2023-02-07T10:04:03;24.40;;;22.20;;
24259;SDS011;12384;48.112;18.418;2023-02-07T10:06:44;28.63;;;25.80;;
24259;SDS011;12384;48.112;18.418;2023-02-07T10:09:17;26.30;;;23.70;;
24259;SDS011;12384;48.112;18.418;2023-02-07T10:11:49;26.27;;;23.87;;
24259;SDS011;12384;48.112;18.418;2023-02-07T10:14:25;23.30;;;21.20;;
24259;SDS011;12384;48.112;18.418;2023-02-07T10:17:17;26.27;;;23.73;;
24259;SDS011;12384;48.112;18.418;2023-02-07T10:20:23;22.90;;;20.70;;
24259;SDS011;12384;48.112;18.418;2023-02-07T10:22:58;21.40;;;19.30;;
24259;SDS011;12384;48.112;18.418;2023-02-07T10:25:38;22.30;;;20.20;;
24259;SDS011;12384;48.112;18.418;2023-02-07T10:28:30;66.87;;;45.27;;
24259;SDS011;12384;48.112;18.418;2023-02-07T10:31:19;32.77;;;28.17;;
24259;SDS011;12384;48.112;18.418;2023-02-07T10:33:52;28.87;;;25.77;;
24259;SDS011;12384;48.112;18.418;2023-02-07T10:36:26;28.90;;;25.90;;
24259;SDS011;12384;48.112;18.418;2023-02-07T10:39:02;37.30;;;29.83;;
24259;SDS011;12384;48.112;18.418;2023-02-07T10:41:36;41.97;;;33.33;;
24259;SDS011;12384;48.112;18.418;2023-02-07T10:44:08;62.53;;;41.77;;
24259;SDS011;12384;48.112;18.418;2023-02-07T10:46:39;39.07;;;33.07;;
24259;SDS011;12384;48.112;18.418;2023-02-07T10:49:13;30.90;;;26.60;;
24259;SDS011;12384;48.112;18.418;2023-02-07T10:51:52;32.10;;;27.37;;
24259;SDS011;12384;48.112;18.418;2023-02-07T10:54:23;27.80;;;25.13;;
24259;SDS011;12384;48.112;18.418;2023-02-07T10:56:53;24.87;;;22.47;;
24259;SDS011;12384;48.112;18.418;2023-02-07T10:59:30;27.57;;;24.97;;
24259;SDS011;12384;48.112;18.418;2023-02-07T11:02:07;27.27;;;24.83;;
24259;SDS011;12384;48.112;18.418;2023-02-07T11:08:19;28.37;;;25.60;;
24259;SDS011;12384;48.112;18.418;2023-02-07T11:10:50;25.90;;;23.33;;
24259;SDS011;12384;48.112;18.418;2023-02-07T11:13:20;26.23;;;23.73;;
24259;SDS011;12384;48.112;18.418;2023-02-07T11:15:54;25.70;;;23.20;;
24259;SDS011;12384;48.112;18.418;2023-02-07T11:18:33;23.63;;;21.33;;
24259;SDS011;12384;48.112;18.418;2023-02-07T11:23:58;24.70;;;22.50;;
24259;SDS011;12384;48.112;18.418;2023-02-07T11:26:29;25.23;;;22.83;;
24259;SDS011;12384;48.112;18.418;2023-02-07T11:29:05;24.73;;;22.43;;
24259;SDS011;12384;48.112;18.418;2023-02-07T11:31:41;24.77;;;22.67;;
24259;SDS011;12384;48.112;18.418;2023-02-07T11:34:24;26.43;;;23.93;;
24259;SDS011;12384;48.112;18.418;2023-02-07T11:37:21;26.33;;;24.03;;
24259;SDS011;12384;48.112;18.418;2023-02-07T11:39:54;26.87;;;24.37;;
24259;SDS011;12384;48.112;18.418;2023-02-07T11:42:24;26.07;;;23.57;;
24259;SDS011;12384;48.112;18.418;2023-02-07T11:44:59;25.20;;;22.80;;
24259;SDS011;12384;48.112;18.418;2023-02-07T11:47:31;26.43;;;24.03;;
24259;SDS011;12384;48.112;18.418;2023-02-07T11:50:04;25.47;;;23.17;;
24259;SDS011;12384;48.112;18.418;2023-02-07T11:52:36;24.17;;;22.07;;
24259;SDS011;12384;48.112;18.418;2023-02-07T11:55:20;25.80;;;23.40;;
24259;SDS011;12384;48.112;18.418;2023-02-07T11:57:50;26.43;;;23.93;;
24259;SDS011;12384;48.112;18.418;2023-02-07T12:00:23;26.67;;;24.27;;
24259;SDS011;12384;48.112;18.418;2023-02-07T12:02:59;25.63;;;23.30;;
24259;SDS011;12384;48.112;18.418;2023-02-07T12:05:30;24.47;;;22.27;;
24259;SDS011;12384;48.112;18.418;2023-02-07T12:08:04;26.13;;;23.53;;
24259;SDS011;12384;48.112;18.418;2023-02-07T12:10:40;23.73;;;21.43;;
24259;SDS011;12384;48.112;18.418;2023-02-07T12:13:13;28.40;;;25.60;;
24259;SDS011;12384;48.112;18.418;2023-02-07T12:15:46;24.33;;;22.03;;
24259;SDS011;12384;48.112;18.418;2023-02-07T12:18:21;23.13;;;20.93;;
24259;SDS011;12384;48.112;18.418;2023-02-07T12:20:56;23.67;;;21.47;;
24259;SDS011;12384;48.112;18.418;2023-02-07T12:23:35;25.77;;;23.47;;
24259;SDS011;12384;48.112;18.418;2023-02-07T12:26:14;24.77;;;22.40;;
24259;SDS011;12384;48.112;18.418;2023-02-07T12:28:50;24.07;;;21.57;;
24259;SDS011;12384;48.112;18.418;2023-02-07T12:31:40;25.30;;;22.90;;
24259;SDS011;12384;48.112;18.418;2023-02-07T12:34:17;23.93;;;21.73;;
24259;SDS011;12384;48.112;18.418;2023-02-07T12:36:53;26.17;;;23.60;;
24259;SDS011;12384;48.112;18.418;2023-02-07T12:39:30;27.27;;;24.50;;
24259;SDS011;12384;48.112;18.418;2023-02-07T12:42:10;25.10;;;22.67;;
24259;SDS011;12384;48.112;18.418;2023-02-07T12:44:50;22.53;;;20.43;;
24259;SDS011;12384;48.112;18.418;2023-02-07T12:47:23;24.17;;;21.97;;
24259;SDS011;12384;48.112;18.418;2023-02-07T12:50:07;24.67;;;22.37;;
24259;SDS011;12384;48.112;18.418;2023-02-07T12:52:45;21.90;;;19.90;;
24259;SDS011;12384;48.112;18.418;2023-02-07T12:55:23;24.30;;;22.10;;
24259;SDS011;12384;48.112;18.418;2023-02-07T12:58:05;27.50;;;24.90;;
24259;SDS011;12384;48.112;18.418;2023-02-07T13:00:46;24.33;;;22.03;;
24259;SDS011;12384;48.112;18.418;2023-02-07T13:03:22;27.23;;;24.73;;
24259;SDS011;12384;48.112;18.418;2023-02-07T13:06:04;25.17;;;22.70;;
24259;SDS011;12384;48.112;18.418;2023-02-07T13:08:43;23.37;;;21.07;;
24259;SDS011;12384;48.112;18.418;2023-02-07T13:11:24;23.53;;;21.43;;
24259;SDS011;12384;48.112;18.418;2023-02-07T13:14:11;24.60;;;22.30;;
24259;SDS011;12384;48.112;18.418;2023-02-07T13:16:55;24.47;;;22.37;;
24259;SDS011;12384;48.112;18.418;2023-02-07T13:19:36;25.07;;;22.93;;
24259;SDS011;12384;48.112;18.418;2023-02-07T13:22:15;21.87;;;19.90;;
24259;SDS011;12384;48.112;18.418;2023-02-07T13:24:52;21.27;;;19.37;;
24259;SDS011;12384;48.112;18.418;2023-02-07T13:27:22;27.33;;;24.83;;
24259;SDS011;12384;48.112;18.418;2023-02-07T13:29:55;25.67;;;23.27;;
24259;SDS011;12384;48.112;18.418;2023-02-07T13:32:26;23.67;;;21.53;;
24259;SDS011;12384;48.112;18.418;2023-02-07T13:34:56;22.37;;;20.37;;
24259;SDS011;12384;48.112;18.418;2023-02-07T13:37:29;23.87;;;21.77;;
24259;SDS011;12384;48.112;18.418;2023-02-07T13:40:04;23.47;;;21.27;;
24259;SDS011;12384;48.112;18.418;2023-02-07T13:42:48;22.50;;;20.50;;
24259;SDS011;12384;48.112;18.418;2023-02-07T13:45:25;23.00;;;20.90;;
24259;SDS011;12384;48.112;18.418;2023-02-07T13:48:03;22.07;;;20.17;;
24259;SDS011;12384;48.112;18.418;2023-02-07T13:50:44;20.77;;;18.87;;
24259;SDS011;12384;48.112;18.418;2023-02-07T13:53:29;21.33;;;19.47;;
24259;SDS011;12384;48.112;18.418;2023-02-07T13:56:08;21.03;;;19.23;;
24259;SDS011;12384;48.112;18.418;2023-02-07T13:58:59;21.57;;;19.67;;
24259;SDS011;12384;48.112;18.418;2023-02-07T14:01:51;21.77;;;19.97;;
24259;SDS011;12384;48.112;18.418;2023-02-07T14:04:24;19.50;;;17.90;;
24259;SDS011;12384;48.112;18.418;2023-02-07T14:07:19;23.40;;;21.30;;
24259;SDS011;12384;48.112;18.418;2023-02-07T14:09:54;21.90;;;20.00;;
24259;SDS011;12384;48.112;18.418;2023-02-07T14:12:25;23.43;;;21.33;;
24259;SDS011;12384;48.112;18.418;2023-02-07T14:14:56;21.17;;;19.37;;
24259;SDS011;12384;48.112;18.418;2023-02-07T14:21:21;19.77;;;18.07;;
24259;SDS011;12384;48.112;18.418;2023-02-07T14:24:01;26.07;;;23.43;;
24259;SDS011;12384;48.112;18.418;2023-02-07T14:30:12;20.37;;;18.57;;
24259;SDS011;12384;48.112;18.418;2023-02-07T14:32:44;19.03;;;17.37;;
24259;SDS011;12384;48.112;18.418;2023-02-07T14:35:43;19.53;;;17.83;;
24259;SDS011;12384;48.112;18.418;2023-02-07T14:38:29;19.07;;;17.40;;
24259;SDS011;12384;48.112;18.418;2023-02-07T14:41:02;19.87;;;18.07;;
24259;SDS011;12384;48.112;18.418;2023-02-07T14:43:41;19.93;;;18.13;;
24259;SDS011;12384;48.112;18.418;2023-02-07T14:46:29;21.17;;;19.30;;
24259;SDS011;12384;48.112;18.418;2023-02-07T14:49:03;20.97;;;19.07;;
24259;SDS011;12384;48.112;18.418;2023-02-07T14:51:40;21.03;;;19.13;;
24259;SDS011;12384;48.112;18.418;2023-02-07T14:54:14;20.00;;;18.10;;
24259;SDS011;12384;48.112;18.418;2023-02-07T14:56:48;21.03;;;19.07;;
24259;SDS011;12384;48.112;18.418;2023-02-07T14:59:24;21.30;;;19.40;;
24259;SDS011;12384;48.112;18.418;2023-02-07T15:01:56;21.50;;;19.30;;